Portada
METAR-TAF:

METAR-TAF

Aeropuertos :

Aeropuerto Internacional de Bamako-Modibo Keïta

Bamako, Malí

latitud: 12-32N, longitud: 007-57W, altitud: 380 m

Observación

El informe se hizo hace 30 minutos, a las 18:00 UTC
Viento 3 kt del este-noreste
Temperatura 35°C
Humedad 10%
Presión 1012 hPa
Visibilidad 10 km o más
sin nubes por debajo de 1500 m y sin presencia de cumulonimbus.

METAR: GABS 161800Z 06003KT CAVOK 35/M01 Q1012 NOSIG

Hora: 18:30 (18:30 UTC)

Pronóstico

El informe se hizo hace 7 horas y 30 minutos, a las 11:00 UTC
Pronóstico válido del 16 a las 12 UTC al 17 a las 18 UTC
Viento 12 kt del este
Visibilidad: 8000 m
Probabilidad 40% :
Temporalmente
del 17 a las 06 UTC al 17 a las 11 UTC
Visibilidad: 4000 m
Polvo extendido

TAF: GABS 161100Z 1612/1718 08012KT 8000 NSC PROB40 TEMPO 1706/1711 4000 DU

Observaciones y pronósticos meteorológicos de más de 4000 aeropuertos (mensajes METAR y TAF).

Los puntos amarillos y rojos representan las estaciones disponibles.

Ponga el ratón en el punto deseado para ver el nombre de la estación.

Haga clic para ver las observaciones y los pronósticos meteorológicos.

Para cambiar el mapa : haga clic en los botones verdes con una cruz de color negro para hacer un zoom, en el botón verde con un guión para alejar o en las flechas verdes para mapas adyacentes.


METAR-TAF: